createdAt,value
2016-06-27T00:00:39.667Z,0
2016-06-27T00:01:39.658Z,0
2016-06-27T00:03:39.062Z,0
2016-06-27T00:04:39.483Z,0
2016-06-27T00:05:54.114Z,0
2016-06-27T00:06:38.888Z,0
2016-06-27T00:07:39.298Z,0
2016-06-27T00:08:54.744Z,0
2016-06-27T00:10:08.355Z,0
2016-06-27T00:10:39.946Z,0
2016-06-27T00:11:39.766Z,0
2016-06-27T00:12:38.984Z,0
2016-06-27T00:13:38.954Z,0
2016-06-27T00:14:38.351Z,0
2016-06-27T00:15:39.356Z,0
2016-06-27T00:16:53.410Z,0
2016-06-27T00:17:54.448Z,0
2016-06-27T00:19:08.457Z,0
2016-06-27T00:19:38.639Z,0
2016-06-27T00:20:39.237Z,0
2016-06-27T00:21:53.042Z,0
2016-06-27T00:22:53.645Z,0
2016-06-27T00:23:39.914Z,0
2016-06-27T00:24:53.047Z,0
2016-06-27T00:25:39.660Z,0
2016-06-27T00:26:40.119Z,0
2016-06-27T00:27:40.523Z,0
2016-06-27T00:28:53.691Z,0
2016-06-27T00:29:38.647Z,0
2016-06-27T00:30:53.499Z,0
2016-06-27T00:32:38.519Z,0
2016-06-27T00:33:40.609Z,0
2016-06-27T00:34:38.947Z,0
2016-06-27T00:35:39.146Z,0
2016-06-27T00:37:53.589Z,0
2016-06-27T00:38:54.416Z,0
2016-06-27T00:39:39.374Z,0
2016-06-27T00:40:40.459Z,0
2016-06-27T00:41:54.034Z,0
2016-06-27T00:42:39.039Z,0
2016-06-27T00:43:39.039Z,0
2016-06-27T00:44:38.191Z,0
2016-06-27T00:46:07.680Z,0
2016-06-27T00:46:38.814Z,0
2016-06-27T00:48:07.479Z,0
2016-06-27T00:48:54.302Z,0
2016-06-27T00:49:38.437Z,0
2016-06-27T00:50:54.558Z,0
2016-06-27T00:51:53.298Z,0
2016-06-27T00:52:53.294Z,0
2016-06-27T00:54:40.132Z,0
2016-06-27T00:55:38.543Z,0
2016-06-27T00:56:39.944Z,0
2016-06-27T00:57:39.134Z,0
2016-06-27T00:58:40.162Z,0
2016-06-27T00:59:39.586Z,0
2016-06-27T01:00:39.790Z,0
2016-06-27T01:01:54.647Z,0
2016-06-27T01:02:40.218Z,0
2016-06-27T01:03:39.474Z,0
2016-06-27T01:04:40.646Z,0
2016-06-27T01:05:54.669Z,0
2016-06-27T01:06:54.499Z,0
2016-06-27T01:07:40.661Z,0
2016-06-27T01:08:39.883Z,0
2016-06-27T01:09:39.887Z,0
2016-06-27T01:10:54.099Z,0
2016-06-27T01:11:40.119Z,0
2016-06-27T01:12:40.358Z,0
2016-06-27T01:14:53.746Z,0
2016-06-27T01:15:40.562Z,0
2016-06-27T01:16:40.167Z,0
2016-06-27T01:17:40.805Z,0
2016-06-27T01:18:39.387Z,0
2016-06-27T01:19:39.784Z,0
2016-06-27T01:20:41.421Z,0
2016-06-27T01:21:39.964Z,0
2016-06-27T01:22:54.640Z,0
2016-06-27T01:24:39.912Z,0
2016-06-27T01:25:54.481Z,0
2016-06-27T01:26:54.687Z,0
2016-06-27T01:27:39.677Z,0
2016-06-27T01:28:40.634Z,0
2016-06-27T01:29:54.882Z,0
2016-06-27T01:30:40.546Z,0
2016-06-27T01:31:41.120Z,0
2016-06-27T01:33:54.747Z,0
2016-06-27T01:34:39.894Z,0
2016-06-27T01:35:53.712Z,0
2016-06-27T01:36:39.718Z,0
2016-06-27T01:37:39.507Z,0
2016-06-27T01:38:39.929Z,0
2016-06-27T01:39:53.758Z,0
2016-06-27T01:40:39.988Z,0
2016-06-27T01:41:40.206Z,0
2016-06-27T01:42:39.177Z,0
2016-06-27T01:43:55.008Z,0
2016-06-27T01:45:39.813Z,0
2016-06-27T01:46:40.056Z,0
2016-06-27T01:48:08.427Z,0
2016-06-27T01:48:39.448Z,0
2016-06-27T01:49:39.395Z,0
2016-06-27T01:50:40.665Z,0
2016-06-27T01:51:54.259Z,0
2016-06-27T01:52:39.886Z,0
2016-06-27T01:53:54.751Z,0
2016-06-27T01:54:54.281Z,0
2016-06-27T01:56:08.711Z,0
2016-06-27T01:56:54.134Z,0
2016-06-27T01:58:40.942Z,0
2016-06-27T01:59:39.320Z,0
2016-06-27T02:00:39.520Z,0
2016-06-27T02:01:39.805Z,0
2016-06-27T02:02:55.210Z,0
2016-06-27T02:03:39.122Z,0
2016-06-27T02:04:39.337Z,0
2016-06-27T02:05:39.125Z,0
2016-06-27T02:06:40.423Z,0
2016-06-27T02:07:39.666Z,0
2016-06-27T02:08:41.256Z,0
2016-06-27T02:09:40.198Z,0
2016-06-27T02:10:54.022Z,0
2016-06-27T02:11:38.566Z,0
2016-06-27T02:12:55.267Z,0
2016-06-27T02:13:38.991Z,0
2016-06-27T02:14:54.466Z,0
2016-06-27T02:15:54.680Z,0
2016-06-27T02:16:39.435Z,0
2016-06-27T02:17:39.222Z,0
2016-06-27T02:18:40.494Z,0
2016-06-27T02:19:39.508Z,0
2016-06-27T02:20:40.133Z,0
2016-06-27T02:21:39.662Z,0
2016-06-27T02:23:08.551Z,0
2016-06-27T02:23:40.136Z,0
2016-06-27T02:24:40.156Z,0
2016-06-27T02:25:54.550Z,0
2016-06-27T02:26:40.530Z,0
2016-06-27T02:27:54.180Z,0
2016-06-27T02:30:08.801Z,0
2016-06-27T02:30:54.193Z,0
2016-06-27T02:31:55.460Z,0
2016-06-27T02:32:54.596Z,0
2016-06-27T02:33:39.598Z,0
2016-06-27T02:34:40.246Z,0
2016-06-27T02:35:55.275Z,0
2016-06-27T02:36:40.029Z,0
2016-06-27T02:38:40.049Z,0
2016-06-27T02:39:40.502Z,0
2016-06-27T02:41:55.547Z,0
2016-06-27T02:42:40.979Z,0
2016-06-27T02:44:39.896Z,0
2016-06-27T02:45:55.184Z,0
2016-06-27T02:46:40.984Z,0
2016-06-27T02:47:55.987Z,0
2016-06-27T02:48:41.402Z,0
2016-06-27T02:49:42.025Z,0
2016-06-27T02:50:40.595Z,0
2016-06-27T02:52:09.606Z,0
2016-06-27T02:53:41.279Z,0
2016-06-27T02:54:41.462Z,0
2016-06-27T02:55:39.642Z,0
2016-06-27T02:56:41.451Z,0
2016-06-27T02:57:41.461Z,0
2016-06-27T02:58:40.864Z,0
2016-06-27T02:59:41.316Z,0
2016-06-27T03:00:55.720Z,0
2016-06-27T03:01:54.886Z,0
2016-06-27T03:02:40.680Z,0
2016-06-27T03:03:54.668Z,0
2016-06-27T03:04:55.923Z,0
2016-06-27T03:05:55.129Z,0
2016-06-27T03:06:41.127Z,0
2016-06-27T03:08:41.216Z,5
2016-06-27T03:09:41.387Z,5
2016-06-27T03:10:55.843Z,5
2016-06-27T03:11:55.396Z,5
2016-06-27T03:12:42.063Z,5
2016-06-27T03:14:40.600Z,5
2016-06-27T03:15:55.226Z,5
2016-06-27T03:16:41.411Z,5
2016-06-27T03:17:40.399Z,5
2016-06-27T03:18:55.879Z,5
2016-06-27T03:19:41.080Z,5
2016-06-27T03:21:41.209Z,5
2016-06-27T03:22:41.099Z,5
2016-06-27T03:23:42.132Z,10
2016-06-27T03:25:41.981Z,10
2016-06-27T03:26:55.313Z,10
2016-06-27T03:28:41.765Z,10
2016-06-27T03:29:41.937Z,10
2016-06-27T03:30:41.362Z,10
2016-06-27T03:31:56.393Z,10
2016-06-27T03:32:41.593Z,10
2016-06-27T03:33:41.791Z,10
2016-06-27T03:34:55.798Z,10
2016-06-27T03:35:54.779Z,10
2016-06-27T03:36:54.354Z,10
2016-06-27T03:37:55.268Z,10
2016-06-27T03:38:55.316Z,10
2016-06-27T03:39:54.802Z,10
2016-06-27T03:40:55.664Z,10
2016-06-27T03:41:55.619Z,15
2016-06-27T03:42:40.830Z,15
2016-06-27T03:43:40.433Z,15
2016-06-27T03:44:41.254Z,15
2016-06-27T03:46:41.262Z,15
2016-06-27T03:47:41.682Z,20
2016-06-27T03:48:41.323Z,20
2016-06-27T03:49:40.286Z,20
2016-06-27T03:50:40.885Z,25
2016-06-27T03:52:09.730Z,25
2016-06-27T03:52:41.101Z,25
2016-06-27T03:54:10.156Z,30
2016-06-27T03:54:40.149Z,30
2016-06-27T03:55:40.115Z,30
2016-06-27T03:56:41.192Z,35
2016-06-27T03:57:40.790Z,35
2016-06-27T04:00:40.801Z,40
2016-06-27T04:01:55.607Z,40
2016-06-27T04:02:55.683Z,40
2016-06-27T04:03:42.055Z,40
2016-06-27T04:05:10.109Z,40
2016-06-27T04:06:41.678Z,35
2016-06-27T04:07:57.136Z,30
2016-06-27T04:08:41.896Z,30
2016-06-27T04:09:56.078Z,30
2016-06-27T04:11:10.749Z,30
2016-06-27T04:11:56.348Z,30
2016-06-27T04:12:55.955Z,25
2016-06-27T04:14:10.765Z,25
2016-06-27T04:14:56.565Z,25
2016-06-27T04:15:42.775Z,25
2016-06-27T04:16:42.155Z,25
2016-06-27T04:17:41.574Z,25
2016-06-27T04:18:41.614Z,25
2016-06-27T04:19:55.582Z,30
2016-06-27T04:20:56.208Z,30
2016-06-27T04:21:55.399Z,35
2016-06-27T04:22:41.176Z,35
2016-06-27T04:23:39.744Z,35
2016-06-27T04:24:39.760Z,35
2016-06-27T04:25:55.215Z,35
2016-06-27T04:26:55.228Z,35
2016-06-27T04:27:41.266Z,35
2016-06-27T04:28:55.884Z,35
2016-06-27T04:30:57.107Z,40
2016-06-27T04:33:10.724Z,40
2016-06-27T04:33:56.970Z,40
2016-06-27T04:34:43.334Z,40
2016-06-27T04:35:56.159Z,40
2016-06-27T04:37:42.595Z,45
2016-06-27T04:38:41.950Z,45
2016-06-27T04:39:55.566Z,45
2016-06-27T04:40:57.430Z,50
2016-06-27T04:41:42.207Z,50
2016-06-27T04:43:41.454Z,55
2016-06-27T04:44:55.988Z,55
2016-06-27T04:46:42.086Z,60
2016-06-27T04:47:42.879Z,60
2016-06-27T04:48:42.289Z,65
2016-06-27T04:49:55.821Z,65
2016-06-27T04:50:56.786Z,65
2016-06-27T04:51:41.608Z,65
2016-06-27T04:52:42.128Z,70
2016-06-27T04:53:41.115Z,70
2016-06-27T04:54:41.524Z,70
2016-06-27T04:55:56.387Z,70
2016-06-27T04:56:41.120Z,70
2016-06-27T04:57:40.876Z,70
2016-06-27T04:58:41.493Z,65
2016-06-27T04:59:55.738Z,65
2016-06-27T05:00:41.305Z,65
2016-06-27T05:01:41.770Z,70
2016-06-27T05:02:56.422Z,70
2016-06-27T05:03:40.967Z,75
2016-06-27T05:04:55.365Z,75
2016-06-27T05:05:56.226Z,75
2016-06-27T05:06:41.401Z,75
2016-06-27T05:07:41.010Z,70
2016-06-27T05:08:41.415Z,70
2016-06-27T05:09:40.802Z,65
2016-06-27T05:10:55.866Z,65
2016-06-27T05:11:41.025Z,60
2016-06-27T05:12:41.917Z,60
2016-06-27T05:13:41.054Z,60
2016-06-27T05:14:42.275Z,60
2016-06-27T05:15:40.238Z,55
2016-06-27T05:16:41.917Z,55
2016-06-27T05:17:41.893Z,50
2016-06-27T05:18:41.078Z,50
2016-06-27T05:19:41.691Z,50
2016-06-27T05:20:41.478Z,50
2016-06-27T05:21:56.368Z,55
2016-06-27T05:22:41.674Z,55
2016-06-27T05:23:56.158Z,55
2016-06-27T05:24:41.618Z,55
2016-06-27T05:25:57.651Z,60
2016-06-27T05:26:41.587Z,60
2016-06-27T05:28:56.066Z,65
2016-06-27T05:29:47.263Z,70
2016-06-27T05:31:41.653Z,70
2016-06-27T05:32:43.136Z,70
2016-06-27T05:33:55.496Z,70
2016-06-27T05:35:57.388Z,75
2016-06-27T05:36:41.496Z,75
2016-06-27T05:37:43.163Z,75
2016-06-27T05:38:57.380Z,75
2016-06-27T05:39:57.166Z,80
2016-06-27T05:41:10.946Z,85
2016-06-27T05:41:42.776Z,85
2016-06-27T05:42:41.625Z,90
2016-06-27T05:43:40.660Z,90
2016-06-27T05:44:41.962Z,95
2016-06-27T05:45:42.896Z,95
2016-06-27T05:46:42.955Z,95
2016-06-27T05:47:42.249Z,95
2016-06-27T05:48:56.762Z,100
2016-06-27T05:49:56.374Z,95
2016-06-27T05:51:42.899Z,95
2016-06-27T05:52:57.087Z,95
2016-06-27T05:53:57.088Z,95
2016-06-27T05:54:42.511Z,95
2016-06-27T05:55:42.099Z,95
2016-06-27T05:56:55.881Z,100
2016-06-27T05:57:43.143Z,100
2016-06-27T05:58:56.523Z,100
2016-06-27T05:59:41.702Z,100
2016-06-27T06:01:10.767Z,100
2016-06-27T06:01:57.989Z,100
2016-06-27T06:02:42.014Z,100
2016-06-27T06:03:43.629Z,100
2016-06-27T06:06:42.849Z,90
2016-06-27T06:07:56.856Z,80
2016-06-27T06:08:43.485Z,80
2016-06-27T06:09:42.415Z,75
2016-06-27T06:10:41.192Z,75
2016-06-27T06:11:41.848Z,75
2016-06-27T06:12:42.674Z,70
2016-06-27T06:13:57.529Z,70
2016-06-27T06:14:43.151Z,75
2016-06-27T06:15:43.325Z,75
2016-06-27T06:17:42.678Z,75
2016-06-27T06:18:56.943Z,75
2016-06-27T06:20:42.752Z,75
2016-06-27T06:21:42.423Z,75
2016-06-27T06:23:11.814Z,75
2016-06-27T06:23:57.643Z,75
2016-06-27T06:25:12.661Z,75
2016-06-27T06:25:56.639Z,75
2016-06-27T06:26:58.489Z,75
2016-06-27T06:27:44.507Z,75
2016-06-27T06:28:43.852Z,80
2016-06-27T06:29:43.300Z,80
2016-06-27T06:30:57.067Z,85
2016-06-27T06:31:57.089Z,90
2016-06-27T06:32:56.678Z,90
2016-06-27T06:33:42.097Z,95
2016-06-27T06:34:57.104Z,100
2016-06-27T06:35:43.322Z,100
2016-06-27T06:36:56.135Z,105
2016-06-27T06:38:12.364Z,110
2016-06-27T06:38:57.434Z,110
2016-06-27T06:39:57.404Z,110
2016-06-27T06:40:42.136Z,110
2016-06-27T06:41:56.805Z,115
2016-06-27T06:43:12.674Z,115
2016-06-27T06:43:43.189Z,110
2016-06-27T06:44:43.363Z,115
2016-06-27T06:45:42.402Z,115
2016-06-27T06:46:43.694Z,115
2016-06-27T06:47:57.270Z,115
2016-06-27T06:48:58.481Z,110
2016-06-27T06:49:43.040Z,110
2016-06-27T06:50:57.468Z,110
2016-06-27T06:52:43.314Z,110
2016-06-27T06:53:43.770Z,110
2016-06-27T06:55:11.106Z,110
2016-06-27T06:55:57.506Z,110
2016-06-27T06:56:44.161Z,110
2016-06-27T06:57:43.787Z,110
2016-06-27T06:58:57.983Z,110
2016-06-27T06:59:43.191Z,110
2016-06-27T07:00:58.002Z,110
2016-06-27T07:01:43.847Z,110
2016-06-27T07:02:42.560Z,110
2016-06-27T07:03:42.980Z,110
2016-06-27T07:04:42.771Z,110
2016-06-27T07:05:56.805Z,110
2016-06-27T07:06:42.654Z,110
2016-06-27T07:07:43.045Z,110
2016-06-27T07:08:42.870Z,105
2016-06-27T07:10:42.471Z,110
2016-06-27T07:11:58.326Z,110
2016-06-27T07:12:43.299Z,115
2016-06-27T07:14:43.357Z,115
2016-06-27T07:15:58.163Z,120
2016-06-27T07:16:57.391Z,120
2016-06-27T07:17:42.921Z,125
2016-06-27T07:18:43.996Z,130
2016-06-27T07:19:42.316Z,130
2016-06-27T07:20:56.770Z,140
2016-06-27T07:21:43.576Z,145
2016-06-27T07:23:43.016Z,150
2016-06-27T07:24:57.659Z,150
2016-06-27T07:25:43.653Z,155
2016-06-27T07:27:11.656Z,155
2016-06-27T07:27:42.424Z,155
2016-06-27T07:28:58.305Z,160
2016-06-27T07:29:57.293Z,160
2016-06-27T07:30:43.110Z,160
2016-06-27T07:31:41.647Z,160
2016-06-27T07:32:47.894Z,160
2016-06-27T07:33:56.703Z,155
2016-06-27T07:34:56.914Z,155
2016-06-27T07:35:57.530Z,150
2016-06-27T07:36:56.721Z,150
2016-06-27T07:37:42.406Z,145
2016-06-27T07:38:58.001Z,140
2016-06-27T07:39:42.357Z,140
2016-06-27T07:40:57.172Z,145
2016-06-27T07:41:43.202Z,145
2016-06-27T07:42:44.480Z,140
2016-06-27T07:43:43.861Z,140
2016-06-27T07:44:57.446Z,140
2016-06-27T07:45:58.743Z,140
2016-06-27T07:46:44.900Z,140
2016-06-27T07:47:44.491Z,145
2016-06-27T07:48:43.128Z,140
2016-06-27T07:49:43.472Z,145
2016-06-27T07:50:44.551Z,150
2016-06-27T07:51:43.307Z,155
2016-06-27T07:52:42.877Z,155
2016-06-27T07:53:44.414Z,155
2016-06-27T07:54:43.166Z,160
2016-06-27T07:55:43.553Z,160
2016-06-27T07:56:42.761Z,165
2016-06-27T07:57:42.411Z,165
2016-06-27T07:59:58.856Z,170
2016-06-27T08:00:43.194Z,170
2016-06-27T08:01:42.786Z,175
2016-06-27T08:02:43.219Z,175
2016-06-27T08:03:45.522Z,180
2016-06-27T08:04:59.303Z,180
2016-06-27T08:05:44.519Z,175
2016-06-27T08:06:43.896Z,180
2016-06-27T08:07:44.105Z,185
2016-06-27T08:08:57.911Z,185
2016-06-27T08:09:44.159Z,190
2016-06-27T08:10:43.729Z,185
2016-06-27T08:11:43.112Z,185
2016-06-27T08:12:42.922Z,190
2016-06-27T08:13:57.778Z,190
2016-06-27T08:14:43.353Z,195
2016-06-27T08:15:57.993Z,205
2016-06-27T08:16:43.000Z,205
2016-06-27T08:17:43.626Z,215
2016-06-27T08:18:43.227Z,215
2016-06-27T08:19:43.441Z,215
2016-06-27T08:20:43.034Z,220
2016-06-27T08:22:43.240Z,230
2016-06-27T08:23:58.538Z,235
2016-06-27T08:24:44.531Z,230
2016-06-27T08:25:42.871Z,235
2016-06-27T08:26:57.919Z,245
2016-06-27T08:27:58.547Z,250
2016-06-27T08:28:44.157Z,250
2016-06-27T08:30:45.064Z,250
2016-06-27T08:31:57.800Z,240
2016-06-27T08:32:59.239Z,245
2016-06-27T08:33:44.368Z,250
2016-06-27T08:34:43.633Z,250
2016-06-27T08:35:45.122Z,245
2016-06-27T08:36:43.040Z,250
2016-06-27T08:37:59.120Z,250
2016-06-27T08:38:43.103Z,250
2016-06-27T08:40:12.719Z,255
2016-06-27T08:40:43.723Z,255
2016-06-27T08:41:44.534Z,250
2016-06-27T08:43:13.802Z,250
2016-06-27T08:43:43.957Z,250
2016-06-27T08:44:45.211Z,245
2016-06-27T08:45:57.364Z,240
2016-06-27T08:46:44.086Z,235
2016-06-27T08:48:00.630Z,225
2016-06-27T08:49:13.396Z,210
2016-06-27T08:50:12.521Z,210
2016-06-27T08:50:57.843Z,200
2016-06-27T08:51:58.667Z,195
2016-06-27T08:52:59.475Z,185
2016-06-27T08:54:00.060Z,185
2016-06-27T08:56:00.198Z,190
2016-06-27T08:56:58.181Z,195
2016-06-27T08:58:45.818Z,195
2016-06-27T08:59:44.722Z,190
2016-06-27T09:01:13.041Z,190
2016-06-27T09:01:44.389Z,190
2016-06-27T09:02:58.583Z,190
2016-06-27T09:03:57.968Z,190
2016-06-27T09:04:44.829Z,190
2016-06-27T09:05:44.224Z,190
2016-06-27T09:06:44.887Z,195
2016-06-27T09:07:58.882Z,200
2016-06-27T09:09:58.485Z,205
2016-06-27T09:10:43.661Z,215
2016-06-27T09:11:45.342Z,225
2016-06-27T09:12:58.946Z,235
2016-06-27T09:14:15.413Z,235
2016-06-27T09:14:59.795Z,230
2016-06-27T09:15:58.988Z,225
2016-06-27T09:16:45.590Z,225
2016-06-27T09:18:13.829Z,220
2016-06-27T09:18:45.645Z,220
2016-06-27T09:19:44.856Z,215
2016-06-27T09:20:44.702Z,215
2016-06-27T09:21:43.844Z,210
2016-06-27T09:22:45.303Z,210
2016-06-27T09:23:59.479Z,210
2016-06-27T09:26:14.143Z,220
2016-06-27T09:26:46.186Z,220
2016-06-27T09:27:58.928Z,225
2016-06-27T09:29:45.804Z,225
2016-06-27T09:30:45.196Z,230
2016-06-27T09:31:44.587Z,240
2016-06-27T09:33:00.223Z,245
2016-06-27T09:33:45.862Z,240
2016-06-27T09:35:14.876Z,245
2016-06-27T09:35:45.829Z,245
2016-06-27T09:36:45.128Z,245
2016-06-27T09:37:59.658Z,245
2016-06-27T09:38:58.484Z,260
2016-06-27T09:39:44.836Z,270
2016-06-27T09:40:44.720Z,265
2016-06-27T09:41:44.713Z,265
2016-06-27T09:43:58.938Z,275
2016-06-27T09:44:59.564Z,275
2016-06-27T09:45:59.998Z,280
2016-06-27T09:47:59.167Z,280
2016-06-27T09:48:43.987Z,285
2016-06-27T09:49:43.983Z,290
2016-06-27T09:50:45.907Z,295
2016-06-27T09:51:59.046Z,295
2016-06-27T09:53:14.087Z,295
2016-06-27T09:54:59.937Z,300
2016-06-27T09:56:59.935Z,300
2016-06-27T09:57:44.760Z,295
2016-06-27T09:59:14.826Z,300
2016-06-27T09:59:45.392Z,305
2016-06-27T10:00:45.391Z,305
2016-06-27T10:01:45.401Z,310
2016-06-27T10:02:58.576Z,305
2016-06-27T10:03:45.817Z,305
2016-06-27T10:05:00.231Z,310
2016-06-27T10:05:45.899Z,300
2016-06-27T10:07:00.490Z,315
2016-06-27T10:08:14.315Z,320
2016-06-27T10:08:46.552Z,290
2016-06-27T10:09:46.559Z,285
2016-06-27T10:10:46.187Z,285
2016-06-27T10:11:45.602Z,280
2016-06-27T10:12:45.554Z,280
2016-06-27T10:13:45.980Z,275
2016-06-27T10:14:45.380Z,275
2016-06-27T10:15:45.838Z,270
2016-06-27T10:16:45.381Z,270
2016-06-27T10:17:46.942Z,270
2016-06-27T10:18:45.217Z,270
2016-06-27T10:20:59.891Z,265
2016-06-27T10:22:46.534Z,265
2016-06-27T10:24:14.743Z,275
2016-06-27T10:24:59.930Z,275
2016-06-27T10:27:13.751Z,275
2016-06-27T10:27:44.961Z,280
2016-06-27T10:28:45.386Z,280
2016-06-27T10:29:45.458Z,280
2016-06-27T10:30:45.183Z,285
2016-06-27T10:32:45.020Z,295
2016-06-27T10:33:44.621Z,290
2016-06-27T10:34:59.945Z,295
2016-06-27T10:35:44.042Z,295
2016-06-27T10:36:59.403Z,295
2016-06-27T10:37:59.700Z,300
2016-06-27T10:38:45.932Z,300
2016-06-27T10:39:44.707Z,305
2016-06-27T10:40:46.202Z,300
2016-06-27T10:41:59.570Z,300
2016-06-27T10:42:45.394Z,305
2016-06-27T10:44:00.253Z,295
2016-06-27T10:45:01.498Z,285
2016-06-27T10:46:14.647Z,270
2016-06-27T10:46:46.274Z,265
2016-06-27T10:47:45.633Z,260
2016-06-27T10:48:59.673Z,255
2016-06-27T10:50:00.123Z,250
2016-06-27T10:51:00.038Z,245
2016-06-27T10:52:00.566Z,245
2016-06-27T10:52:45.948Z,240
2016-06-27T10:53:47.011Z,235
2016-06-27T10:54:47.411Z,235
2016-06-27T10:56:15.053Z,215
2016-06-27T10:57:47.105Z,200
2016-06-27T10:59:01.062Z,190
2016-06-27T11:00:01.925Z,200
2016-06-27T11:01:01.929Z,210
2016-06-27T11:02:00.688Z,215
2016-06-27T11:02:47.781Z,220
2016-06-27T11:05:15.149Z,225
2016-06-27T11:06:01.977Z,230
2016-06-27T11:06:46.747Z,235
2016-06-27T11:10:15.645Z,265
2016-06-27T11:10:47.445Z,270
2016-06-27T11:12:02.295Z,270
2016-06-27T11:13:14.876Z,255
2016-06-27T11:13:46.472Z,255
2016-06-27T11:14:46.090Z,230
2016-06-27T11:15:47.716Z,225
2016-06-27T11:16:47.119Z,230
2016-06-27T11:19:01.550Z,235
2016-06-27T11:20:15.414Z,235
2016-06-27T11:20:47.223Z,250
2016-06-27T11:21:47.607Z,255
2016-06-27T11:23:29.440Z,250
2016-06-27T11:23:45.642Z,255
2016-06-27T11:24:47.259Z,265
2016-06-27T11:25:45.572Z,245
2016-06-27T11:27:00.872Z,235
2016-06-27T11:27:47.048Z,230
2016-06-27T11:29:01.724Z,240
2016-06-27T11:30:01.945Z,245
2016-06-27T11:30:47.147Z,255
2016-06-27T11:32:00.828Z,245
2016-06-27T11:33:00.716Z,240
2016-06-27T11:33:46.764Z,230
2016-06-27T11:34:46.773Z,230
2016-06-27T11:35:46.802Z,240
2016-06-27T11:37:02.462Z,225
2016-06-27T11:38:01.233Z,215
2016-06-27T11:39:01.615Z,215
2016-06-27T11:39:45.720Z,215
2016-06-27T11:41:01.715Z,205
2016-06-27T11:42:15.962Z,210
2016-06-27T11:42:46.184Z,205
2016-06-27T11:43:47.586Z,195
2016-06-27T11:45:01.029Z,195
2016-06-27T11:45:47.417Z,190
2016-06-27T11:46:48.447Z,190
2016-06-27T11:47:47.233Z,185
2016-06-27T11:49:30.233Z,205
2016-06-27T11:50:01.838Z,210
2016-06-27T11:50:47.837Z,215
2016-06-27T11:51:46.213Z,215
2016-06-27T11:53:16.418Z,215
2016-06-27T11:55:02.281Z,175
2016-06-27T11:55:46.259Z,135
2016-06-27T11:57:17.293Z,155
2016-06-27T11:57:47.864Z,220
2016-06-27T11:59:00.925Z,165
2016-06-27T11:59:47.975Z,140
2016-06-27T12:00:48.653Z,120
2016-06-27T12:01:47.089Z,125
2016-06-27T12:02:49.439Z,180
2016-06-27T12:05:30.918Z,155
2016-06-27T12:06:00.863Z,155
2016-06-27T12:06:46.416Z,85
2016-06-27T12:07:45.803Z,155
2016-06-27T12:09:01.505Z,155
2016-06-27T12:09:47.734Z,155
2016-06-27T12:10:46.926Z,165
2016-06-27T12:12:01.144Z,175
2016-06-27T12:12:48.169Z,190
2016-06-27T12:14:00.337Z,190
2016-06-27T12:14:47.203Z,130
2016-06-27T12:15:47.228Z,180
2016-06-27T12:17:02.478Z,190
2016-06-27T12:18:02.094Z,165
2016-06-27T12:18:47.250Z,180
2016-06-27T12:20:01.697Z,165
2016-06-27T12:20:47.107Z,165
2016-06-27T12:21:47.923Z,95
2016-06-27T12:23:16.562Z,165
2016-06-27T12:24:01.769Z,160
2016-06-27T12:25:03.370Z,165
2016-06-27T12:25:48.042Z,95
2016-06-27T12:28:01.794Z,185
2016-06-27T12:29:02.220Z,145
2016-06-27T12:30:01.667Z,135
2016-06-27T12:31:03.100Z,180
2016-06-27T12:31:48.407Z,180
2016-06-27T12:33:01.883Z,225
2016-06-27T12:33:48.989Z,200
2016-06-27T12:35:01.690Z,100
2016-06-27T12:35:47.519Z,90
2016-06-27T12:37:06.742Z,155
2016-06-27T12:37:47.966Z,155
2016-06-27T12:38:48.607Z,155
2016-06-27T12:39:47.363Z,150
2016-06-27T12:40:47.399Z,150
2016-06-27T12:41:47.249Z,145
2016-06-27T12:42:47.043Z,145
2016-06-27T12:44:02.453Z,145
2016-06-27T12:45:02.532Z,145
2016-06-27T12:45:48.685Z,145
2016-06-27T12:46:48.095Z,145
2016-06-27T12:47:48.950Z,145
2016-06-27T12:49:47.994Z,145
2016-06-27T12:50:48.824Z,145
2016-06-27T12:51:49.669Z,150
2016-06-27T12:53:17.859Z,155
2016-06-27T12:53:48.683Z,155
2016-06-27T12:54:47.865Z,155
2016-06-27T12:56:16.461Z,160
2016-06-27T12:56:48.475Z,160
2016-06-27T12:58:02.465Z,165
2016-06-27T12:59:32.227Z,175
2016-06-27T12:59:47.497Z,175
2016-06-27T13:01:31.379Z,170
2016-06-27T13:01:47.699Z,165
2016-06-27T13:02:48.611Z,110
2016-06-27T13:03:47.747Z,190
2016-06-27T13:05:16.402Z,190
2016-06-27T13:05:48.608Z,155
2016-06-27T13:07:02.660Z,190
2016-06-27T13:08:48.667Z,165
2016-06-27T13:09:48.993Z,185
2016-06-27T13:11:17.554Z,185
2016-06-27T13:11:47.875Z,185
2016-06-27T13:13:49.161Z,190
2016-06-27T13:15:01.926Z,190
2016-06-27T13:16:49.055Z,210
2016-06-27T13:17:48.639Z,210
2016-06-27T13:18:47.792Z,210
2016-06-27T13:19:47.835Z,215
2016-06-27T13:21:02.632Z,210
2016-06-27T13:22:02.294Z,200
2016-06-27T13:22:48.696Z,110
2016-06-27T13:23:47.692Z,195
2016-06-27T13:25:47.963Z,195
2016-06-27T13:27:02.758Z,205
2016-06-27T13:27:47.905Z,200
2016-06-27T13:28:49.024Z,200
2016-06-27T13:29:47.947Z,200
2016-06-27T13:30:47.978Z,200
2016-06-27T13:31:49.706Z,200
2016-06-27T13:34:03.124Z,195
2016-06-27T13:34:49.316Z,195
2016-06-27T13:35:48.267Z,195
2016-06-27T13:36:49.754Z,195
2016-06-27T13:38:18.383Z,200
2016-06-27T13:39:02.813Z,200
2016-06-27T13:39:49.016Z,200
2016-06-27T13:40:49.427Z,195
2016-06-27T13:41:49.437Z,170
2016-06-27T13:42:47.568Z,115
2016-06-27T13:43:48.058Z,215
2016-06-27T13:44:47.845Z,160
2016-06-27T13:45:48.446Z,210
2016-06-27T13:46:50.194Z,215
2016-06-27T13:48:02.258Z,210
2016-06-27T13:48:48.934Z,220
2016-06-27T13:50:49.158Z,215
2016-06-27T13:52:03.406Z,230
2016-06-27T13:52:48.800Z,315
2016-06-27T13:53:48.798Z,285
2016-06-27T13:55:02.992Z,730
2016-06-27T13:55:50.089Z,890
2016-06-27T13:57:04.326Z,285
2016-06-27T13:57:49.486Z,150
2016-06-27T13:59:18.329Z,1020
2016-06-27T14:00:04.171Z,1105
2016-06-27T14:00:49.529Z,940
2016-06-27T14:02:03.359Z,150
2016-06-27T14:03:04.206Z,180
2016-06-27T14:03:49.384Z,230
2016-06-27T14:04:48.770Z,245
2016-06-27T14:06:03.494Z,130
2016-06-27T14:06:49.422Z,125
2016-06-27T14:08:03.039Z,115
2016-06-27T14:08:48.203Z,120
2016-06-27T14:10:02.631Z,120
2016-06-27T14:11:03.662Z,125
2016-06-27T14:11:49.537Z,130
2016-06-27T14:12:48.690Z,135
2016-06-27T14:13:48.714Z,135
2016-06-27T14:14:48.774Z,160
2016-06-27T14:16:02.519Z,170
2016-06-27T14:17:02.992Z,165
2016-06-27T14:17:50.087Z,165
2016-06-27T14:18:48.985Z,160
2016-06-27T14:19:49.250Z,145
2016-06-27T14:20:50.886Z,140
2016-06-27T14:22:03.861Z,135
2016-06-27T14:22:49.876Z,140
2016-06-27T14:25:03.307Z,325
2016-06-27T14:26:03.138Z,310
2016-06-27T14:27:03.100Z,285
2016-06-27T14:27:48.330Z,265
2016-06-27T14:30:18.188Z,255
2016-06-27T14:31:03.861Z,155
2016-06-27T14:33:04.443Z,235
2016-06-27T14:34:19.501Z,250
2016-06-27T14:34:50.505Z,240
2016-06-27T14:36:50.142Z,145
2016-06-27T14:38:04.377Z,170
2016-06-27T14:39:05.574Z,175
2016-06-27T14:40:03.968Z,220
2016-06-27T14:40:50.164Z,165
2016-06-27T14:42:05.241Z,145
2016-06-27T14:42:50.270Z,140
2016-06-27T14:44:05.269Z,130
2016-06-27T14:45:04.039Z,120
2016-06-27T14:45:50.858Z,110
2016-06-27T14:47:03.841Z,115
2016-06-27T14:48:04.500Z,120
2016-06-27T14:48:49.682Z,125
2016-06-27T14:50:05.754Z,130
2016-06-27T14:51:03.922Z,155
2016-06-27T14:51:49.332Z,170
2016-06-27T14:52:49.370Z,180
2016-06-27T14:53:50.368Z,165
2016-06-27T14:54:49.977Z,185
2016-06-27T14:56:05.265Z,250
2016-06-27T14:57:17.800Z,280
2016-06-27T14:57:49.591Z,270
2016-06-27T14:58:49.238Z,180
2016-06-27T14:59:50.680Z,170
2016-06-27T15:00:50.852Z,160
2016-06-27T15:02:18.660Z,145
2016-06-27T15:02:50.312Z,145
2016-06-27T15:03:50.303Z,230
2016-06-27T15:04:50.341Z,250
2016-06-27T15:05:49.095Z,240
2016-06-27T15:06:49.515Z,240
2016-06-27T15:08:04.145Z,220
2016-06-27T15:08:50.367Z,215
2016-06-27T15:09:49.972Z,195
2016-06-27T15:10:48.549Z,255
2016-06-27T15:11:49.168Z,360
2016-06-27T15:13:18.254Z,215
2016-06-27T15:14:03.814Z,120
2016-06-27T15:14:49.243Z,215
2016-06-27T15:15:51.329Z,360
2016-06-27T15:16:50.531Z,335
2016-06-27T15:18:49.831Z,285
2016-06-27T15:20:04.792Z,260
2016-06-27T15:20:51.030Z,240